createdAt,value
2019-02-05T00:03:15.047Z,120.80
2019-02-05T00:08:20.347Z,168.57
2019-02-05T00:13:25.383Z,126.37
2019-02-05T00:18:30.420Z,146.60
2019-02-05T00:23:35.411Z,166.93
2019-02-05T00:28:40.432Z,139.47
2019-02-05T00:33:45.490Z,127.13
2019-02-05T00:38:50.571Z,159.00
2019-02-05T00:43:55.545Z,160.23
2019-02-05T00:49:00.716Z,167.03
2019-02-05T00:54:07.208Z,172.27
2019-02-05T00:59:12.223Z,157.70
2019-02-05T01:04:17.216Z,160.97
2019-02-05T01:09:22.205Z,185.83
2019-02-05T01:14:27.257Z,142.93
2019-02-05T01:19:32.332Z,220.07
2019-02-05T01:24:37.301Z,145.03
2019-02-05T01:29:42.300Z,154.20
2019-02-05T01:34:47.295Z,150.37
2019-02-05T01:39:52.299Z,164.83
2019-02-05T01:44:57.413Z,237.70
2019-02-05T01:50:02.461Z,169.60
2019-02-05T01:55:07.693Z,159.73
2019-02-05T02:00:16.030Z,160.30
2019-02-05T02:05:21.043Z,173.63
2019-02-05T02:10:27.596Z,173.90
2019-02-05T02:15:32.638Z,159.47
2019-02-05T02:20:37.629Z,163.87
2019-02-05T02:25:42.635Z,195.27
2019-02-05T02:30:47.735Z,185.03
2019-02-05T02:35:53.156Z,164.07
2019-02-05T02:40:58.288Z,138.00
2019-02-05T02:46:03.352Z,190.47
2019-02-05T02:51:08.462Z,132.57
2019-02-05T02:56:13.629Z,121.60
2019-02-05T03:01:18.652Z,120.90
2019-02-05T03:06:23.643Z,158.60
2019-02-05T03:11:28.599Z,135.57
2019-02-05T03:16:33.602Z,141.57
2019-02-05T03:21:38.619Z,124.53
2019-02-05T03:26:43.571Z,127.70
2019-02-05T03:31:48.599Z,139.17
2019-02-05T03:36:53.581Z,102.07
2019-02-05T03:41:58.602Z,104.03
2019-02-05T03:47:03.660Z,108.23
2019-02-05T03:52:23.283Z,106.90
2019-02-05T03:58:00.459Z,89.90
2019-02-05T04:03:42.050Z,97.63
2019-02-05T04:09:06.326Z,90.80
2019-02-05T04:14:51.475Z,92.30
2019-02-05T04:20:42.555Z,96.87
2019-02-05T04:26:11.003Z,94.67
2019-02-05T04:31:42.214Z,94.93
2019-02-05T04:37:29.537Z,98.80
2019-02-05T04:43:01.887Z,90.77
2019-02-05T04:49:04.942Z,88.93
2019-02-05T04:54:36.194Z,105.77
2019-02-05T05:00:21.071Z,128.40
2019-02-05T05:06:19.543Z,98.97
2019-02-05T05:11:24.519Z,95.50
2019-02-05T05:16:29.475Z,92.50
2019-02-05T05:21:34.455Z,92.07
2019-02-05T05:26:39.632Z,92.67
2019-02-05T05:31:44.594Z,81.63
2019-02-05T05:36:51.726Z,91.37
2019-02-05T05:41:56.658Z,97.00
2019-02-05T05:47:01.632Z,90.90
2019-02-05T05:52:06.627Z,88.83
2019-02-05T05:57:11.674Z,87.33
2019-02-05T06:02:18.466Z,103.47
2019-02-05T06:07:23.604Z,89.80
2019-02-05T06:12:28.708Z,82.67
2019-02-05T06:17:33.872Z,91.10
2019-02-05T06:22:40.094Z,81.10
2019-02-05T06:27:45.591Z,86.00
2019-02-05T06:32:50.573Z,131.00
2019-02-05T06:37:55.933Z,125.53
2019-02-05T06:43:01.437Z,92.23
2019-02-05T06:48:06.411Z,91.03
2019-02-05T06:53:11.908Z,129.73
2019-02-05T06:58:16.918Z,87.67
2019-02-05T07:03:22.155Z,86.03
2019-02-05T07:08:27.163Z,80.93
2019-02-05T07:13:32.122Z,163.07
2019-02-05T07:18:37.588Z,92.07
2019-02-05T07:23:42.570Z,157.27
2019-02-05T07:28:57.926Z,105.37
2019-02-05T07:33:54.204Z,238.80
2019-02-05T07:39:02.159Z,135.03
2019-02-05T07:44:07.450Z,103.43
2019-02-05T07:49:12.463Z,163.37
2019-02-05T07:54:17.470Z,161.10
2019-02-05T07:59:22.468Z,158.20
2019-02-05T08:04:27.495Z,130.50
2019-02-05T08:09:32.492Z,208.03
2019-02-05T08:14:37.494Z,229.97
2019-02-05T08:19:42.475Z,124.40
2019-02-05T08:24:47.879Z,153.80
2019-02-05T08:29:52.886Z,105.27
2019-02-05T08:34:57.886Z,128.73
2019-02-05T08:40:02.902Z,116.47
2019-02-05T08:45:10.347Z,123.40
2019-02-05T08:50:18.875Z,110.40
2019-02-05T08:55:23.874Z,108.63
2019-02-05T09:00:31.327Z,120.20
2019-02-05T09:05:36.327Z,105.00
2019-02-05T09:10:41.997Z,126.67
2019-02-05T09:15:52.777Z,150.63
2019-02-05T09:20:57.864Z,148.20
2019-02-05T09:26:02.846Z,165.47
2019-02-05T09:31:07.845Z,157.47
2019-02-05T09:36:12.845Z,133.30
2019-02-05T09:41:18.172Z,140.87
2019-02-05T09:46:23.222Z,216.13
2019-02-05T09:51:28.201Z,187.90
2019-02-05T09:56:33.182Z,151.97
2019-02-05T10:01:38.374Z,164.63
2019-02-05T10:06:43.677Z,144.57
2019-02-05T10:11:48.659Z,153.53
2019-02-05T10:16:53.657Z,166.93
2019-02-05T10:21:58.650Z,154.17
2019-02-05T10:27:03.628Z,158.03
2019-02-05T10:32:11.071Z,142.37
2019-02-05T10:37:16.075Z,141.50
2019-02-05T10:42:21.076Z,134.27
2019-02-05T10:47:26.119Z,154.07
2019-02-05T10:52:31.262Z,158.33
2019-02-05T10:57:36.762Z,171.77
2019-02-05T11:02:41.749Z,190.50
2019-02-05T11:07:46.742Z,194.90
2019-02-05T11:12:51.733Z,153.57
2019-02-05T11:17:56.956Z,157.80
2019-02-05T11:23:02.800Z,168.47
2019-02-05T11:28:07.820Z,217.33
2019-02-05T11:33:13.323Z,229.40
2019-02-05T11:38:18.371Z,201.93
2019-02-05T11:43:23.398Z,217.73
2019-02-05T11:48:28.392Z,152.10
2019-02-05T11:53:33.379Z,168.10
2019-02-05T11:58:38.370Z,168.60
2019-02-05T12:03:43.357Z,132.33
2019-02-05T12:08:48.342Z,149.60
2019-02-05T12:13:53.325Z,97.27
2019-02-05T12:18:58.397Z,96.50
2019-02-05T12:24:03.391Z,113.93
2019-02-05T12:29:08.680Z,101.53
2019-02-05T12:34:13.635Z,133.87
2019-02-05T12:39:22.114Z,77.30
2019-02-05T12:44:27.099Z,83.83
2019-02-05T12:49:32.078Z,89.23
2019-02-05T12:54:37.088Z,82.27
2019-02-05T12:59:42.111Z,93.00
2019-02-05T13:04:47.225Z,77.20
2019-02-05T13:09:52.706Z,85.17
2019-02-05T13:14:58.000Z,71.17
2019-02-05T13:20:03.220Z,67.83
2019-02-05T13:25:12.744Z,68.17
2019-02-05T13:30:20.453Z,95.03
2019-02-05T13:35:26.275Z,85.13
2019-02-05T13:40:31.668Z,93.13
2019-02-05T13:45:37.962Z,85.90
2019-02-05T13:50:43.344Z,97.70
2019-02-05T13:55:48.353Z,106.13
2019-02-05T14:00:55.231Z,122.63
2019-02-05T14:06:00.228Z,98.60
2019-02-05T14:11:05.635Z,126.43
2019-02-05T14:16:10.649Z,131.67
2019-02-05T14:21:15.645Z,114.60
2019-02-05T14:26:20.840Z,153.10
2019-02-05T14:31:31.326Z,87.57
2019-02-05T14:36:32.455Z,88.47
2019-02-05T14:41:37.439Z,82.27
2019-02-05T14:46:42.459Z,78.83
2019-02-05T14:51:47.970Z,79.57
2019-02-05T14:56:52.942Z,72.93
2019-02-05T15:01:57.928Z,82.10
2019-02-05T15:07:02.923Z,84.63
2019-02-05T15:12:07.989Z,59.87
2019-02-05T15:17:13.226Z,64.17
2019-02-05T15:22:18.203Z,72.27
2019-02-05T15:27:23.575Z,67.67
2019-02-05T15:33:02.542Z,75.87
2019-02-05T15:38:07.523Z,75.33
2019-02-05T15:43:12.546Z,95.83
2019-02-05T15:48:17.531Z,76.80
2019-02-05T15:53:22.506Z,86.90
2019-02-05T15:58:27.490Z,76.13
2019-02-05T16:03:32.507Z,80.63
2019-02-05T16:08:37.782Z,84.37
2019-02-05T16:13:42.766Z,86.70
2019-02-05T16:18:47.757Z,82.47
2019-02-05T16:23:52.906Z,77.30
2019-02-05T16:28:57.871Z,81.53
2019-02-05T16:34:02.860Z,77.37
2019-02-05T16:39:10.642Z,76.07
2019-02-05T16:44:15.626Z,84.83
2019-02-05T16:49:22.397Z,80.40
2019-02-05T16:54:27.248Z,89.50
2019-02-05T16:59:32.222Z,90.00
2019-02-05T17:04:37.211Z,89.57
2019-02-05T17:09:42.203Z,89.30
2019-02-05T17:14:47.197Z,86.70
2019-02-05T17:19:52.168Z,86.87
2019-02-05T17:24:57.159Z,83.03
2019-02-05T17:30:03.416Z,81.30
2019-02-05T17:35:09.181Z,79.43
2019-02-05T17:40:16.920Z,77.93
2019-02-05T17:45:24.457Z,76.20
2019-02-05T17:50:32.116Z,141.57
2019-02-05T17:55:37.536Z,83.50
2019-02-05T18:00:55.120Z,85.60
2019-02-05T18:06:00.257Z,90.07
2019-02-05T18:11:26.830Z,87.60
2019-02-05T18:16:34.618Z,96.57
2019-02-05T18:21:39.632Z,98.17
2019-02-05T18:26:44.631Z,99.70
2019-02-05T18:31:49.637Z,121.27
2019-02-05T18:36:54.652Z,96.57
2019-02-05T18:41:59.667Z,107.40
2019-02-05T18:47:04.657Z,104.73
2019-02-05T18:52:09.676Z,103.87
2019-02-05T18:57:14.717Z,111.40
2019-02-05T19:02:19.969Z,106.13
2019-02-05T19:07:24.949Z,98.23
2019-02-05T19:12:29.978Z,102.63
2019-02-05T19:17:34.950Z,102.63
2019-02-05T19:22:39.946Z,102.77
2019-02-05T19:27:46.249Z,94.27
2019-02-05T19:32:51.454Z,98.50
2019-02-05T19:37:56.649Z,100.70
2019-02-05T19:43:02.225Z,104.77
2019-02-05T19:48:10.477Z,93.07
2019-02-05T19:53:16.029Z,101.10
2019-02-05T19:58:21.033Z,136.27
2019-02-05T20:03:38.034Z,113.70
2019-02-05T20:08:33.167Z,122.43
2019-02-05T20:13:40.285Z,119.93
2019-02-05T20:18:44.830Z,114.47
2019-02-05T20:23:49.820Z,124.27
2019-02-05T20:28:55.117Z,114.00
2019-02-05T20:34:00.112Z,114.07
2019-02-05T20:39:12.642Z,111.93
2019-02-05T20:44:17.646Z,119.20
2019-02-05T20:49:22.635Z,127.10
2019-02-05T20:54:27.667Z,120.40
2019-02-05T20:59:32.666Z,122.23
2019-02-05T21:04:48.000Z,110.07
2019-02-05T21:09:46.618Z,111.50
2019-02-05T21:14:51.701Z,113.10
2019-02-05T21:19:56.724Z,124.87
2019-02-05T21:25:01.715Z,119.73
2019-02-05T21:30:08.775Z,128.13
2019-02-05T21:35:14.083Z,119.97
2019-02-05T21:40:20.737Z,126.27
2019-02-05T21:45:26.055Z,139.93
2019-02-05T21:50:31.302Z,145.97
2019-02-05T21:55:36.692Z,143.00
2019-02-05T22:00:41.707Z,145.00
2019-02-05T22:05:46.724Z,135.00
2019-02-05T22:11:10.815Z,121.57
2019-02-05T22:16:19.815Z,149.03
2019-02-05T22:21:25.053Z,97.07
2019-02-05T22:26:30.057Z,108.77
2019-02-05T22:31:35.429Z,107.93
2019-02-05T22:36:40.814Z,114.73
2019-02-05T22:41:46.396Z,119.50
2019-02-05T22:46:51.407Z,119.33
2019-02-05T22:51:59.591Z,119.93
2019-02-05T22:57:04.638Z,112.93
2019-02-05T23:02:10.171Z,114.07
2019-02-05T23:07:21.065Z,129.03
2019-02-05T23:12:36.444Z,110.97
2019-02-05T23:17:41.838Z,138.67
2019-02-05T23:22:47.144Z,115.60
2019-02-05T23:27:52.255Z,120.50
2019-02-05T23:32:57.695Z,114.10
2019-02-05T23:38:02.975Z,125.53
2019-02-05T23:43:08.006Z,122.60
2019-02-05T23:48:13.031Z,119.17
2019-02-05T23:53:18.752Z,119.73
2019-02-05T23:58:23.764Z,118.40
